sensor_id;sensor_type;location;lat;lon;timestamp;P1;durP1;ratioP1;P2;durP2;ratioP2
16792;SDS011;8513;42.662;23.350;2023-10-09T00:00:11;8.38;;;2.90;;
16792;SDS011;8513;42.662;23.350;2023-10-09T00:02:57;6.60;;;2.10;;
16792;SDS011;8513;42.662;23.350;2023-10-09T00:05:26;9.18;;;2.50;;
16792;SDS011;8513;42.662;23.350;2023-10-09T00:08:04;5.95;;;2.20;;
16792;SDS011;8513;42.662;23.350;2023-10-09T00:10:29;8.65;;;2.40;;
16792;SDS011;8513;42.662;23.350;2023-10-09T00:13:10;9.10;;;2.45;;
16792;SDS011;8513;42.662;23.350;2023-10-09T00:15:36;5.95;;;2.17;;
16792;SDS011;8513;42.662;23.350;2023-10-09T00:18:02;7.20;;;1.90;;
16792;SDS011;8513;42.662;23.350;2023-10-09T00:20:37;5.60;;;2.25;;
16792;SDS011;8513;42.662;23.350;2023-10-09T00:23:08;4.90;;;2.25;;
16792;SDS011;8513;42.662;23.350;2023-10-09T00:25:48;6.75;;;2.10;;
16792;SDS011;8513;42.662;23.350;2023-10-09T00:28:37;6.47;;;2.10;;
16792;SDS011;8513;42.662;23.350;2023-10-09T00:31:06;6.18;;;2.38;;
16792;SDS011;8513;42.662;23.350;2023-10-09T00:33:33;6.55;;;2.20;;
16792;SDS011;8513;42.662;23.350;2023-10-09T00:36:05;6.88;;;2.53;;
16792;SDS011;8513;42.662;23.350;2023-10-09T00:38:34;6.18;;;2.20;;
16792;SDS011;8513;42.662;23.350;2023-10-09T00:41:00;7.85;;;2.17;;
16792;SDS011;8513;42.662;23.350;2023-10-09T00:43:49;3.25;;;1.83;;
16792;SDS011;8513;42.662;23.350;2023-10-09T00:46:18;3.45;;;1.60;;
16792;SDS011;8513;42.662;23.350;2023-10-09T00:48:50;5.43;;;2.30;;
16792;SDS011;8513;42.662;23.350;2023-10-09T00:51:17;8.43;;;1.90;;
16792;SDS011;8513;42.662;23.350;2023-10-09T00:53:47;9.68;;;2.15;;
16792;SDS011;8513;42.662;23.350;2023-10-09T00:56:16;5.90;;;1.63;;
16792;SDS011;8513;42.662;23.350;2023-10-09T00:58:55;4.78;;;1.88;;
16792;SDS011;8513;42.662;23.350;2023-10-09T01:01:39;2.78;;;1.98;;
16792;SDS011;8513;42.662;23.350;2023-10-09T01:04:05;8.43;;;1.85;;
16792;SDS011;8513;42.662;23.350;2023-10-09T01:06:46;3.33;;;1.83;;
16792;SDS011;8513;42.662;23.350;2023-10-09T01:09:29;3.45;;;1.95;;
16792;SDS011;8513;42.662;23.350;2023-10-09T01:12:01;6.40;;;1.88;;
16792;SDS011;8513;42.662;23.350;2023-10-09T01:14:26;4.80;;;1.80;;
16792;SDS011;8513;42.662;23.350;2023-10-09T01:16:52;6.32;;;1.85;;
16792;SDS011;8513;42.662;23.350;2023-10-09T01:19:19;4.93;;;1.42;;
16792;SDS011;8513;42.662;23.350;2023-10-09T01:21:49;3.15;;;1.52;;
16792;SDS011;8513;42.662;23.350;2023-10-09T01:24:15;5.32;;;1.75;;
16792;SDS011;8513;42.662;23.350;2023-10-09T01:26:42;9.18;;;1.63;;
16792;SDS011;8513;42.662;23.350;2023-10-09T01:29:20;4.15;;;1.85;;
16792;SDS011;8513;42.662;23.350;2023-10-09T01:31:50;4.32;;;1.90;;
16792;SDS011;8513;42.662;23.350;2023-10-09T01:34:30;4.63;;;1.55;;
16792;SDS011;8513;42.662;23.350;2023-10-09T01:37:03;3.08;;;1.67;;
16792;SDS011;8513;42.662;23.350;2023-10-09T01:39:30;4.50;;;1.55;;
16792;SDS011;8513;42.662;23.350;2023-10-09T01:41:56;4.75;;;1.58;;
16792;SDS011;8513;42.662;23.350;2023-10-09T01:44:25;3.08;;;1.65;;
16792;SDS011;8513;42.662;23.350;2023-10-09T01:46:53;5.65;;;1.60;;
16792;SDS011;8513;42.662;23.350;2023-10-09T01:49:23;3.47;;;2.03;;
16792;SDS011;8513;42.662;23.350;2023-10-09T01:51:56;4.60;;;1.80;;
16792;SDS011;8513;42.662;23.350;2023-10-09T01:54:34;5.00;;;1.70;;
16792;SDS011;8513;42.662;23.350;2023-10-09T01:57:06;4.65;;;1.77;;
16792;SDS011;8513;42.662;23.350;2023-10-09T01:59:41;3.75;;;1.63;;
16792;SDS011;8513;42.662;23.350;2023-10-09T02:02:12;5.53;;;1.95;;
16792;SDS011;8513;42.662;23.350;2023-10-09T02:05:00;4.75;;;2.40;;
16792;SDS011;8513;42.662;23.350;2023-10-09T02:07:49;9.25;;;2.33;;
16792;SDS011;8513;42.662;23.350;2023-10-09T02:10:18;5.28;;;1.95;;
16792;SDS011;8513;42.662;23.350;2023-10-09T02:15:26;4.00;;;1.95;;
16792;SDS011;8513;42.662;23.350;2023-10-09T02:18:08;5.50;;;1.92;;
16792;SDS011;8513;42.662;23.350;2023-10-09T02:20:48;3.13;;;1.70;;
16792;SDS011;8513;42.662;23.350;2023-10-09T02:23:29;9.05;;;1.88;;
16792;SDS011;8513;42.662;23.350;2023-10-09T02:26:14;3.67;;;1.65;;
16792;SDS011;8513;42.662;23.350;2023-10-09T02:28:44;5.38;;;1.80;;
16792;SDS011;8513;42.662;23.350;2023-10-09T02:31:17;6.03;;;2.00;;
16792;SDS011;8513;42.662;23.350;2023-10-09T02:33:47;3.25;;;1.67;;
16792;SDS011;8513;42.662;23.350;2023-10-09T02:36:15;3.35;;;1.60;;
16792;SDS011;8513;42.662;23.350;2023-10-09T02:38:40;2.88;;;1.42;;
16792;SDS011;8513;42.662;23.350;2023-10-09T02:41:07;3.10;;;1.60;;
16792;SDS011;8513;42.662;23.350;2023-10-09T02:43:39;2.50;;;1.60;;
16792;SDS011;8513;42.662;23.350;2023-10-09T02:46:12;4.38;;;1.50;;
16792;SDS011;8513;42.662;23.350;2023-10-09T02:48:58;6.22;;;1.40;;
16792;SDS011;8513;42.662;23.350;2023-10-09T02:51:25;6.07;;;1.60;;
16792;SDS011;8513;42.662;23.350;2023-10-09T02:53:52;3.05;;;1.50;;
16792;SDS011;8513;42.662;23.350;2023-10-09T02:56:22;6.80;;;1.65;;
16792;SDS011;8513;42.662;23.350;2023-10-09T02:59:12;3.42;;;1.88;;
16792;SDS011;8513;42.662;23.350;2023-10-09T03:01:38;2.42;;;1.60;;
16792;SDS011;8513;42.662;23.350;2023-10-09T03:04:05;6.40;;;1.63;;
16792;SDS011;8513;42.662;23.350;2023-10-09T03:06:34;2.83;;;1.35;;
16792;SDS011;8513;42.662;23.350;2023-10-09T03:09:03;3.42;;;1.58;;
16792;SDS011;8513;42.662;23.350;2023-10-09T03:11:43;3.35;;;1.50;;
16792;SDS011;8513;42.662;23.350;2023-10-09T03:14:13;4.45;;;1.40;;
16792;SDS011;8513;42.662;23.350;2023-10-09T03:16:39;1.58;;;1.30;;
16792;SDS011;8513;42.662;23.350;2023-10-09T03:19:04;1.40;;;1.27;;
16792;SDS011;8513;42.662;23.350;2023-10-09T03:21:30;3.78;;;1.50;;
16792;SDS011;8513;42.662;23.350;2023-10-09T03:23:55;3.40;;;1.38;;
16792;SDS011;8513;42.662;23.350;2023-10-09T03:26:21;4.13;;;1.45;;
16792;SDS011;8513;42.662;23.350;2023-10-09T03:28:51;2.95;;;1.20;;
16792;SDS011;8513;42.662;23.350;2023-10-09T03:31:17;3.22;;;1.40;;
16792;SDS011;8513;42.662;23.350;2023-10-09T03:33:43;1.20;;;1.08;;
16792;SDS011;8513;42.662;23.350;2023-10-09T03:36:08;4.47;;;1.25;;
16792;SDS011;8513;42.662;23.350;2023-10-09T03:38:37;3.20;;;1.30;;
16792;SDS011;8513;42.662;23.350;2023-10-09T03:41:05;4.53;;;1.38;;
16792;SDS011;8513;42.662;23.350;2023-10-09T03:43:34;3.08;;;1.27;;
16792;SDS011;8513;42.662;23.350;2023-10-09T03:46:07;5.65;;;1.67;;
16792;SDS011;8513;42.662;23.350;2023-10-09T03:48:57;3.90;;;1.13;;
16792;SDS011;8513;42.662;23.350;2023-10-09T03:51:25;2.47;;;1.20;;
16792;SDS011;8513;42.662;23.350;2023-10-09T03:53:52;2.28;;;1.27;;
16792;SDS011;8513;42.662;23.350;2023-10-09T03:56:20;2.72;;;1.10;;
16792;SDS011;8513;42.662;23.350;2023-10-09T03:58:47;3.40;;;1.30;;
16792;SDS011;8513;42.662;23.350;2023-10-09T04:01:16;3.97;;;1.20;;
16792;SDS011;8513;42.662;23.350;2023-10-09T04:03:49;1.98;;;1.23;;
16792;SDS011;8513;42.662;23.350;2023-10-09T04:06:20;1.23;;;1.00;;
16792;SDS011;8513;42.662;23.350;2023-10-09T04:08:46;2.50;;;1.20;;
16792;SDS011;8513;42.662;23.350;2023-10-09T04:11:16;1.05;;;0.93;;
16792;SDS011;8513;42.662;23.350;2023-10-09T04:13:45;1.70;;;1.10;;
16792;SDS011;8513;42.662;23.350;2023-10-09T04:16:14;3.08;;;1.20;;
16792;SDS011;8513;42.662;23.350;2023-10-09T04:18:56;2.95;;;1.40;;
16792;SDS011;8513;42.662;23.350;2023-10-09T04:21:36;1.48;;;1.00;;
16792;SDS011;8513;42.662;23.350;2023-10-09T04:24:06;1.70;;;1.10;;
16792;SDS011;8513;42.662;23.350;2023-10-09T04:26:42;1.55;;;1.10;;
16792;SDS011;8513;42.662;23.350;2023-10-09T04:29:11;1.83;;;1.20;;
16792;SDS011;8513;42.662;23.350;2023-10-09T04:31:51;4.40;;;1.38;;
16792;SDS011;8513;42.662;23.350;2023-10-09T04:34:24;1.73;;;1.02;;
16792;SDS011;8513;42.662;23.350;2023-10-09T04:36:52;2.72;;;1.00;;
16792;SDS011;8513;42.662;23.350;2023-10-09T04:39:26;1.63;;;1.20;;
16792;SDS011;8513;42.662;23.350;2023-10-09T04:41:55;2.60;;;0.95;;
16792;SDS011;8513;42.662;23.350;2023-10-09T04:44:41;1.30;;;0.93;;
16792;SDS011;8513;42.662;23.350;2023-10-09T04:47:28;1.98;;;1.42;;
16792;SDS011;8513;42.662;23.350;2023-10-09T04:50:09;2.28;;;1.10;;
16792;SDS011;8513;42.662;23.350;2023-10-09T04:52:54;1.65;;;1.17;;
16792;SDS011;8513;42.662;23.350;2023-10-09T04:55:19;2.47;;;1.05;;
16792;SDS011;8513;42.662;23.350;2023-10-09T04:57:49;3.80;;;1.52;;
16792;SDS011;8513;42.662;23.350;2023-10-09T05:00:36;2.22;;;1.30;;
16792;SDS011;8513;42.662;23.350;2023-10-09T05:03:12;3.33;;;1.20;;
16792;SDS011;8513;42.662;23.350;2023-10-09T05:05:49;2.38;;;1.13;;
16792;SDS011;8513;42.662;23.350;2023-10-09T05:08:23;3.72;;;1.27;;
16792;SDS011;8513;42.662;23.350;2023-10-09T05:11:00;1.25;;;0.90;;
16792;SDS011;8513;42.662;23.350;2023-10-09T05:18:52;2.15;;;1.25;;
16792;SDS011;8513;42.662;23.350;2023-10-09T05:24:08;1.75;;;1.30;;
16792;SDS011;8513;42.662;23.350;2023-10-09T05:26:37;3.65;;;1.52;;
16792;SDS011;8513;42.662;23.350;2023-10-09T05:31:47;1.50;;;1.30;;
16792;SDS011;8513;42.662;23.350;2023-10-09T05:34:25;2.50;;;1.48;;
16792;SDS011;8513;42.662;23.350;2023-10-09T05:37:02;4.10;;;1.40;;
16792;SDS011;8513;42.662;23.350;2023-10-09T05:39:56;2.75;;;1.02;;
16792;SDS011;8513;42.662;23.350;2023-10-09T05:42:25;1.13;;;0.90;;
16792;SDS011;8513;42.662;23.350;2023-10-09T05:47:51;1.73;;;1.23;;
16792;SDS011;8513;42.662;23.350;2023-10-09T05:50:36;2.22;;;1.70;;
16792;SDS011;8513;42.662;23.350;2023-10-09T05:53:25;2.25;;;1.60;;
16792;SDS011;8513;42.662;23.350;2023-10-09T05:56:19;3.72;;;1.48;;
16792;SDS011;8513;42.662;23.350;2023-10-09T05:58:57;1.90;;;1.50;;
16792;SDS011;8513;42.662;23.350;2023-10-09T06:01:31;2.30;;;1.65;;
16792;SDS011;8513;42.662;23.350;2023-10-09T06:04:15;1.85;;;1.15;;
16792;SDS011;8513;42.662;23.350;2023-10-09T06:06:44;2.30;;;1.20;;
16792;SDS011;8513;42.662;23.350;2023-10-09T06:09:10;3.42;;;1.20;;
16792;SDS011;8513;42.662;23.350;2023-10-09T06:11:40;2.85;;;1.60;;
16792;SDS011;8513;42.662;23.350;2023-10-09T06:14:19;2.80;;;1.50;;
16792;SDS011;8513;42.662;23.350;2023-10-09T06:17:11;2.03;;;1.05;;
16792;SDS011;8513;42.662;23.350;2023-10-09T06:19:36;3.55;;;2.03;;
16792;SDS011;8513;42.662;23.350;2023-10-09T06:22:08;4.35;;;1.60;;
16792;SDS011;8513;42.662;23.350;2023-10-09T06:24:37;3.70;;;1.40;;
16792;SDS011;8513;42.662;23.350;2023-10-09T06:27:10;2.83;;;0.93;;
16792;SDS011;8513;42.662;23.350;2023-10-09T06:29:37;2.17;;;1.00;;
16792;SDS011;8513;42.662;23.350;2023-10-09T06:32:15;2.65;;;1.25;;
16792;SDS011;8513;42.662;23.350;2023-10-09T06:34:51;2.17;;;1.50;;
16792;SDS011;8513;42.662;23.350;2023-10-09T06:37:42;1.88;;;1.00;;
16792;SDS011;8513;42.662;23.350;2023-10-09T06:40:37;2.20;;;1.10;;
16792;SDS011;8513;42.662;23.350;2023-10-09T06:43:32;2.72;;;1.20;;
16792;SDS011;8513;42.662;23.350;2023-10-09T06:46:01;1.10;;;1.00;;
16792;SDS011;8513;42.662;23.350;2023-10-09T06:48:59;3.75;;;1.13;;
16792;SDS011;8513;42.662;23.350;2023-10-09T06:51:40;1.88;;;1.20;;
16792;SDS011;8513;42.662;23.350;2023-10-09T06:54:05;1.50;;;1.27;;
16792;SDS011;8513;42.662;23.350;2023-10-09T06:56:34;1.60;;;1.30;;
16792;SDS011;8513;42.662;23.350;2023-10-09T06:59:01;2.15;;;1.00;;
16792;SDS011;8513;42.662;23.350;2023-10-09T07:01:38;2.50;;;1.13;;
16792;SDS011;8513;42.662;23.350;2023-10-09T07:04:04;2.05;;;1.20;;
16792;SDS011;8513;42.662;23.350;2023-10-09T07:06:49;1.60;;;1.30;;
16792;SDS011;8513;42.662;23.350;2023-10-09T07:09:16;1.90;;;1.23;;
16792;SDS011;8513;42.662;23.350;2023-10-09T07:11:47;1.55;;;1.00;;
16792;SDS011;8513;42.662;23.350;2023-10-09T07:14:20;1.38;;;1.10;;
16792;SDS011;8513;42.662;23.350;2023-10-09T07:16:59;3.72;;;1.13;;
16792;SDS011;8513;42.662;23.350;2023-10-09T07:19:32;1.27;;;1.08;;
16792;SDS011;8513;42.662;23.350;2023-10-09T07:22:20;1.83;;;1.30;;
16792;SDS011;8513;42.662;23.350;2023-10-09T07:24:54;1.73;;;1.15;;
16792;SDS011;8513;42.662;23.350;2023-10-09T07:27:24;1.42;;;1.20;;
16792;SDS011;8513;42.662;23.350;2023-10-09T07:30:12;1.88;;;1.00;;
16792;SDS011;8513;42.662;23.350;2023-10-09T07:32:54;1.50;;;1.40;;
16792;SDS011;8513;42.662;23.350;2023-10-09T07:35:35;2.45;;;1.15;;
16792;SDS011;8513;42.662;23.350;2023-10-09T07:38:08;1.63;;;1.10;;
16792;SDS011;8513;42.662;23.350;2023-10-09T07:40:44;1.92;;;1.50;;
16792;SDS011;8513;42.662;23.350;2023-10-09T07:43:18;2.67;;;1.38;;
16792;SDS011;8513;42.662;23.350;2023-10-09T07:45:44;1.02;;;1.00;;
16792;SDS011;8513;42.662;23.350;2023-10-09T07:48:15;3.78;;;1.10;;
16792;SDS011;8513;42.662;23.350;2023-10-09T07:50:40;3.05;;;1.20;;
16792;SDS011;8513;42.662;23.350;2023-10-09T07:53:09;1.58;;;1.15;;
16792;SDS011;8513;42.662;23.350;2023-10-09T07:55:50;1.90;;;1.30;;
16792;SDS011;8513;42.662;23.350;2023-10-09T07:58:27;4.47;;;1.40;;
16792;SDS011;8513;42.662;23.350;2023-10-09T08:00:57;4.85;;;2.28;;
16792;SDS011;8513;42.662;23.350;2023-10-09T08:03:35;2.35;;;1.80;;
16792;SDS011;8513;42.662;23.350;2023-10-09T08:06:01;5.68;;;2.00;;
16792;SDS011;8513;42.662;23.350;2023-10-09T08:08:53;2.47;;;1.75;;
16792;SDS011;8513;42.662;23.350;2023-10-09T08:11:37;2.78;;;1.20;;
16792;SDS011;8513;42.662;23.350;2023-10-09T08:14:06;2.70;;;1.52;;
16792;SDS011;8513;42.662;23.350;2023-10-09T08:16:46;1.77;;;1.50;;
16792;SDS011;8513;42.662;23.350;2023-10-09T08:19:11;2.78;;;1.85;;
16792;SDS011;8513;42.662;23.350;2023-10-09T08:21:55;5.57;;;1.50;;
16792;SDS011;8513;42.662;23.350;2023-10-09T08:24:39;1.95;;;1.10;;
16792;SDS011;8513;42.662;23.350;2023-10-09T08:27:09;4.55;;;1.63;;
16792;SDS011;8513;42.662;23.350;2023-10-09T08:30:13;1.00;;;0.70;;
16792;SDS011;8513;42.662;23.350;2023-10-09T08:32:50;1.73;;;1.13;;
16792;SDS011;8513;42.662;23.350;2023-10-09T08:35:30;1.58;;;1.17;;
16792;SDS011;8513;42.662;23.350;2023-10-09T08:38:00;1.48;;;1.10;;
16792;SDS011;8513;42.662;23.350;2023-10-09T08:43:02;1.08;;;0.98;;
16792;SDS011;8513;42.662;23.350;2023-10-09T08:45:34;1.77;;;1.10;;
16792;SDS011;8513;42.662;23.350;2023-10-09T08:48:04;1.67;;;1.20;;
16792;SDS011;8513;42.662;23.350;2023-10-09T08:50:31;2.05;;;1.00;;
16792;SDS011;8513;42.662;23.350;2023-10-09T08:52:59;2.20;;;1.02;;
16792;SDS011;8513;42.662;23.350;2023-10-09T08:55:26;2.92;;;1.10;;
16792;SDS011;8513;42.662;23.350;2023-10-09T08:57:52;3.50;;;1.25;;
16792;SDS011;8513;42.662;23.350;2023-10-09T09:00:18;1.77;;;1.08;;
16792;SDS011;8513;42.662;23.350;2023-10-09T09:02:55;7.53;;;1.40;;
16792;SDS011;8513;42.662;23.350;2023-10-09T09:05:20;5.68;;;1.80;;
16792;SDS011;8513;42.662;23.350;2023-10-09T09:07:46;3.15;;;1.33;;
16792;SDS011;8513;42.662;23.350;2023-10-09T09:10:13;1.40;;;1.00;;
16792;SDS011;8513;42.662;23.350;2023-10-09T09:12:49;3.78;;;1.25;;
16792;SDS011;8513;42.662;23.350;2023-10-09T09:15:18;5.22;;;1.50;;
16792;SDS011;8513;42.662;23.350;2023-10-09T09:17:51;4.28;;;1.48;;
16792;SDS011;8513;42.662;23.350;2023-10-09T09:20:31;2.30;;;1.38;;
16792;SDS011;8513;42.662;23.350;2023-10-09T09:23:01;1.40;;;1.10;;
16792;SDS011;8513;42.662;23.350;2023-10-09T09:28:11;3.40;;;1.02;;
16792;SDS011;8513;42.662;23.350;2023-10-09T09:30:37;2.42;;;1.30;;
16792;SDS011;8513;42.662;23.350;2023-10-09T09:33:21;1.83;;;1.33;;
16792;SDS011;8513;42.662;23.350;2023-10-09T09:35:57;2.03;;;1.13;;
16792;SDS011;8513;42.662;23.350;2023-10-09T09:38:24;5.22;;;1.92;;
16792;SDS011;8513;42.662;23.350;2023-10-09T09:40:53;1.88;;;1.25;;
16792;SDS011;8513;42.662;23.350;2023-10-09T09:43:21;2.80;;;1.33;;
16792;SDS011;8513;42.662;23.350;2023-10-09T09:45:47;1.15;;;1.00;;
16792;SDS011;8513;42.662;23.350;2023-10-09T09:48:15;2.03;;;1.40;;
16792;SDS011;8513;42.662;23.350;2023-10-09T09:50:42;1.17;;;1.08;;
16792;SDS011;8513;42.662;23.350;2023-10-09T09:53:13;3.05;;;1.33;;
16792;SDS011;8513;42.662;23.350;2023-10-09T09:55:48;1.92;;;1.20;;
16792;SDS011;8513;42.662;23.350;2023-10-09T09:58:20;6.72;;;1.30;;
16792;SDS011;8513;42.662;23.350;2023-10-09T10:00:49;1.83;;;1.30;;
16792;SDS011;8513;42.662;23.350;2023-10-09T10:05:54;1.20;;;1.10;;
16792;SDS011;8513;42.662;23.350;2023-10-09T10:08:22;1.55;;;1.30;;
16792;SDS011;8513;42.662;23.350;2023-10-09T10:10:59;1.45;;;1.30;;
16792;SDS011;8513;42.662;23.350;2023-10-09T10:16:05;2.45;;;1.30;;
16792;SDS011;8513;42.662;23.350;2023-10-09T10:19:00;2.38;;;1.40;;
16792;SDS011;8513;42.662;23.350;2023-10-09T10:21:48;4.28;;;1.42;;
16792;SDS011;8513;42.662;23.350;2023-10-09T10:29:43;2.17;;;1.20;;
16792;SDS011;8513;42.662;23.350;2023-10-09T10:32:11;3.13;;;1.30;;
16792;SDS011;8513;42.662;23.350;2023-10-09T10:34:55;3.35;;;1.40;;
16792;SDS011;8513;42.662;23.350;2023-10-09T10:37:42;3.00;;;1.40;;
16792;SDS011;8513;42.662;23.350;2023-10-09T10:40:26;3.05;;;1.90;;
16792;SDS011;8513;42.662;23.350;2023-10-09T10:43:17;2.75;;;2.00;;
16792;SDS011;8513;42.662;23.350;2023-10-09T10:46:16;2.03;;;1.45;;
16792;SDS011;8513;42.662;23.350;2023-10-09T10:49:02;1.55;;;1.45;;
16792;SDS011;8513;42.662;23.350;2023-10-09T10:51:38;3.63;;;1.63;;
16792;SDS011;8513;42.662;23.350;2023-10-09T10:54:05;3.25;;;1.88;;
16792;SDS011;8513;42.662;23.350;2023-10-09T10:57:02;4.18;;;2.83;;
16792;SDS011;8513;42.662;23.350;2023-10-09T10:59:32;3.90;;;2.20;;
16792;SDS011;8513;42.662;23.350;2023-10-09T11:02:09;3.65;;;2.00;;
16792;SDS011;8513;42.662;23.350;2023-10-09T11:04:35;2.10;;;1.90;;
16792;SDS011;8513;42.662;23.350;2023-10-09T11:07:06;3.60;;;2.22;;
16792;SDS011;8513;42.662;23.350;2023-10-09T11:12:45;2.50;;;1.85;;
16792;SDS011;8513;42.662;23.350;2023-10-09T11:15:17;3.72;;;1.60;;
16792;SDS011;8513;42.662;23.350;2023-10-09T11:18:01;2.13;;;1.75;;
16792;SDS011;8513;42.662;23.350;2023-10-09T11:20:33;2.80;;;2.20;;
16792;SDS011;8513;42.662;23.350;2023-10-09T11:23:00;6.00;;;2.17;;
16792;SDS011;8513;42.662;23.350;2023-10-09T11:25:35;7.18;;;2.10;;
16792;SDS011;8513;42.662;23.350;2023-10-09T11:28:03;2.75;;;1.50;;
16792;SDS011;8513;42.662;23.350;2023-10-09T11:30:54;2.30;;;1.80;;
16792;SDS011;8513;42.662;23.350;2023-10-09T11:33:41;2.95;;;2.08;;
16792;SDS011;8513;42.662;23.350;2023-10-09T11:36:08;2.70;;;1.90;;
16792;SDS011;8513;42.662;23.350;2023-10-09T11:38:37;6.28;;;3.10;;
16792;SDS011;8513;42.662;23.350;2023-10-09T11:41:16;3.70;;;3.05;;
16792;SDS011;8513;42.662;23.350;2023-10-09T11:43:52;5.10;;;3.20;;
16792;SDS011;8513;42.662;23.350;2023-10-09T11:46:19;3.72;;;2.50;;
16792;SDS011;8513;42.662;23.350;2023-10-09T11:49:07;2.40;;;2.17;;
16792;SDS011;8513;42.662;23.350;2023-10-09T11:52:06;3.42;;;2.28;;
16792;SDS011;8513;42.662;23.350;2023-10-09T11:54:55;4.47;;;2.60;;
16792;SDS011;8513;42.662;23.350;2023-10-09T11:57:21;4.05;;;2.28;;
16792;SDS011;8513;42.662;23.350;2023-10-09T11:59:55;3.05;;;2.67;;
16792;SDS011;8513;42.662;23.350;2023-10-09T12:02:21;3.88;;;2.70;;
16792;SDS011;8513;42.662;23.350;2023-10-09T12:04:47;4.70;;;2.50;;
16792;SDS011;8513;42.662;23.350;2023-10-09T12:07:12;6.55;;;3.22;;
16792;SDS011;8513;42.662;23.350;2023-10-09T12:09:37;2.90;;;2.45;;
16792;SDS011;8513;42.662;23.350;2023-10-09T12:12:03;4.22;;;3.17;;
16792;SDS011;8513;42.662;23.350;2023-10-09T12:14:30;3.10;;;2.33;;
16792;SDS011;8513;42.662;23.350;2023-10-09T12:17:00;2.53;;;2.28;;
16792;SDS011;8513;42.662;23.350;2023-10-09T12:19:35;3.20;;;2.53;;
16792;SDS011;8513;42.662;23.350;2023-10-09T12:22:02;3.47;;;2.22;;
16792;SDS011;8513;42.662;23.350;2023-10-09T12:24:32;5.15;;;2.60;;
16792;SDS011;8513;42.662;23.350;2023-10-09T12:26:58;2.33;;;2.13;;
16792;SDS011;8513;42.662;23.350;2023-10-09T12:29:24;2.92;;;2.63;;
16792;SDS011;8513;42.662;23.350;2023-10-09T12:31:55;3.08;;;2.70;;
16792;SDS011;8513;42.662;23.350;2023-10-09T12:34:26;2.58;;;2.35;;
16792;SDS011;8513;42.662;23.350;2023-10-09T12:36:53;3.38;;;2.30;;
16792;SDS011;8513;42.662;23.350;2023-10-09T12:39:19;2.95;;;2.38;;
16792;SDS011;8513;42.662;23.350;2023-10-09T12:41:48;4.35;;;2.42;;
16792;SDS011;8513;42.662;23.350;2023-10-09T12:44:14;2.50;;;2.30;;
16792;SDS011;8513;42.662;23.350;2023-10-09T12:46:40;3.65;;;2.85;;
16792;SDS011;8513;42.662;23.350;2023-10-09T12:49:06;3.45;;;2.70;;
16792;SDS011;8513;42.662;23.350;2023-10-09T12:51:32;2.78;;;2.65;;
16792;SDS011;8513;42.662;23.350;2023-10-09T12:53:57;3.63;;;3.42;;
16792;SDS011;8513;42.662;23.350;2023-10-09T12:56:32;3.65;;;3.35;;
16792;SDS011;8513;42.662;23.350;2023-10-09T12:59:01;3.03;;;2.80;;
16792;SDS011;8513;42.662;23.350;2023-10-09T13:01:30;3.05;;;2.85;;
16792;SDS011;8513;42.662;23.350;2023-10-09T13:04:11;3.17;;;2.95;;
16792;SDS011;8513;42.662;23.350;2023-10-09T13:06:39;3.53;;;3.28;;
16792;SDS011;8513;42.662;23.350;2023-10-09T13:09:14;3.78;;;3.47;;
16792;SDS011;8513;42.662;23.350;2023-10-09T13:11:41;6.40;;;5.28;;
16792;SDS011;8513;42.662;23.350;2023-10-09T13:14:08;4.85;;;4.65;;
16792;SDS011;8513;42.662;23.350;2023-10-09T13:16:42;5.68;;;5.18;;
16792;SDS011;8513;42.662;23.350;2023-10-09T13:19:10;5.82;;;5.25;;
16792;SDS011;8513;42.662;23.350;2023-10-09T13:21:36;8.35;;;7.70;;
16792;SDS011;8513;42.662;23.350;2023-10-09T13:24:06;10.30;;;9.50;;
16792;SDS011;8513;42.662;23.350;2023-10-09T13:26:38;10.68;;;10.15;;
16792;SDS011;8513;42.662;23.350;2023-10-09T13:29:04;15.60;;;14.82;;
16792;SDS011;8513;42.662;23.350;2023-10-09T13:31:34;15.90;;;15.10;;
16792;SDS011;8513;42.662;23.350;2023-10-09T13:34:03;26.95;;;25.83;;
16792;SDS011;8513;42.662;23.350;2023-10-09T13:36:31;31.52;;;30.27;;
16792;SDS011;8513;42.662;23.350;2023-10-09T13:39:01;1999.90;;;999.90;;
16792;SDS011;8513;42.662;23.350;2023-10-09T13:41:55;1999.90;;;999.90;;
16792;SDS011;8513;42.662;23.350;2023-10-09T13:44:25;1999.90;;;999.90;;
16792;SDS011;8513;42.662;23.350;2023-10-09T13:46:52;1999.90;;;999.90;;
16792;SDS011;8513;42.662;23.350;2023-10-09T13:49:21;1999.90;;;999.90;;
16792;SDS011;8513;42.662;23.350;2023-10-09T13:51:47;1999.90;;;999.90;;
16792;SDS011;8513;42.662;23.350;2023-10-09T13:54:15;1999.90;;;999.90;;
16792;SDS011;8513;42.662;23.350;2023-10-09T13:56:53;1999.90;;;999.90;;
16792;SDS011;8513;42.662;23.350;2023-10-09T13:59:20;1999.90;;;999.90;;
16792;SDS011;8513;42.662;23.350;2023-10-09T14:01:50;1999.90;;;999.90;;
16792;SDS011;8513;42.662;23.350;2023-10-09T14:04:20;1999.90;;;999.90;;
16792;SDS011;8513;42.662;23.350;2023-10-09T14:06:46;1999.90;;;999.90;;
16792;SDS011;8513;42.662;23.350;2023-10-09T14:09:12;1999.90;;;999.90;;
16792;SDS011;8513;42.662;23.350;2023-10-09T14:11:55;40.75;;;39.00;;
16792;SDS011;8513;42.662;23.350;2023-10-09T14:14:31;28.08;;;26.77;;
16792;SDS011;8513;42.662;23.350;2023-10-09T14:16:58;21.48;;;20.38;;
16792;SDS011;8513;42.662;23.350;2023-10-09T14:19:23;16.85;;;15.95;;
16792;SDS011;8513;42.662;23.350;2023-10-09T14:21:49;13.23;;;12.27;;
16792;SDS011;8513;42.662;23.350;2023-10-09T14:24:15;11.52;;;10.48;;
16792;SDS011;8513;42.662;23.350;2023-10-09T14:26:41;11.40;;;10.77;;
16792;SDS011;8513;42.662;23.350;2023-10-09T14:29:10;7.30;;;5.68;;
16792;SDS011;8513;42.662;23.350;2023-10-09T14:31:40;6.38;;;5.78;;
16792;SDS011;8513;42.662;23.350;2023-10-09T14:34:05;5.97;;;5.20;;
16792;SDS011;8513;42.662;23.350;2023-10-09T14:36:34;3.65;;;2.72;;
16792;SDS011;8513;42.662;23.350;2023-10-09T14:39:00;4.03;;;2.50;;
16792;SDS011;8513;42.662;23.350;2023-10-09T14:41:26;6.03;;;2.70;;
16792;SDS011;8513;42.662;23.350;2023-10-09T14:43:53;6.78;;;2.85;;
16792;SDS011;8513;42.662;23.350;2023-10-09T14:46:19;4.88;;;2.40;;
16792;SDS011;8513;42.662;23.350;2023-10-09T14:48:51;9.20;;;3.05;;
16792;SDS011;8513;42.662;23.350;2023-10-09T14:51:22;3.88;;;3.17;;
16792;SDS011;8513;42.662;23.350;2023-10-09T14:53:55;5.32;;;2.60;;
16792;SDS011;8513;42.662;23.350;2023-10-09T14:56:26;3.88;;;2.60;;
16792;SDS011;8513;42.662;23.350;2023-10-09T14:58:59;3.47;;;2.45;;
16792;SDS011;8513;42.662;23.350;2023-10-09T15:01:29;4.57;;;3.00;;
16792;SDS011;8513;42.662;23.350;2023-10-09T15:03:59;4.57;;;2.50;;
16792;SDS011;8513;42.662;23.350;2023-10-09T15:06:28;6.45;;;2.75;;
16792;SDS011;8513;42.662;23.350;2023-10-09T15:08:55;7.47;;;2.60;;
16792;SDS011;8513;42.662;23.350;2023-10-09T15:11:25;5.40;;;2.88;;
16792;SDS011;8513;42.662;23.350;2023-10-09T15:13:53;6.22;;;3.28;;
16792;SDS011;8513;42.662;23.350;2023-10-09T15:16:19;10.00;;;3.60;;
16792;SDS011;8513;42.662;23.350;2023-10-09T15:18:46;4.88;;;3.88;;
16792;SDS011;8513;42.662;23.350;2023-10-09T15:21:17;4.20;;;3.20;;
16792;SDS011;8513;42.662;23.350;2023-10-09T15:23:47;6.88;;;2.90;;
16792;SDS011;8513;42.662;23.350;2023-10-09T15:26:15;8.48;;;3.67;;
16792;SDS011;8513;42.662;23.350;2023-10-09T15:28:42;8.48;;;3.15;;
16792;SDS011;8513;42.662;23.350;2023-10-09T15:31:07;4.05;;;2.85;;
16792;SDS011;8513;42.662;23.350;2023-10-09T15:33:36;4.95;;;3.30;;
16792;SDS011;8513;42.662;23.350;2023-10-09T15:36:11;4.97;;;3.08;;
16792;SDS011;8513;42.662;23.350;2023-10-09T15:38:38;5.35;;;2.83;;
16792;SDS011;8513;42.662;23.350;2023-10-09T15:41:04;10.05;;;3.42;;
16792;SDS011;8513;42.662;23.350;2023-10-09T15:43:31;6.20;;;3.13;;
16792;SDS011;8513;42.662;23.350;2023-10-09T15:46:10;4.88;;;2.70;;
16792;SDS011;8513;42.662;23.350;2023-10-09T15:48:37;6.95;;;3.30;;
16792;SDS011;8513;42.662;23.350;2023-10-09T15:51:04;6.22;;;2.90;;